Flight Track Log - Related Links

Times and Time Zones

All times are in EDT time to prevent confusion due to time zone crossing. See the ZK-OKP flight status page for this flight to view local times or setup timezone preferences in your user account.

Time Position Orientation Groundspeed Altitude Reporting Facility
EDT Latitude Longitude Course Direction KTS MPH feet Rate Location/Type
Sat 11:32:40 AM 51.4777 -0.5299 267° West 191 220 2,200  Level FlightAware ADS-B
Sat 11:32:44 AM 51.4773 -0.5352 263° West 188 216 2,400 2,571 Climbing FlightAware ADS-B
Sat 11:32:47 AM 51.4766 -0.5402 257° West 187 215 2,500 1,714 Climbing FlightAware ADS-B
Sat 11:32:51 AM 51.4756 -0.5454 253° West 188 216 2,600 1,500 Climbing FlightAware ADS-B
Sat 11:32:55 AM 51.4744 -0.5507 250° West 190 219 2,700 1,286 Climbing FlightAware ADS-B
Sat 11:33:05 AM 51.4710 -0.5640 248° West 199 229 2,900 1,263 Climbing FlightAware ADS-B
Sat 11:33:14 AM 51.4682 -0.5768 251° West 208 239 3,100 1,333 Climbing FlightAware ADS-B
Sat 11:33:23 AM 51.4655 -0.5910 253° West 217 250 3,300 1,667 Climbing FlightAware ADS-B
Sat 11:33:32 AM 51.4631 -0.6045 254° West 222 255 3,600 2,842 Climbing FlightAware ADS-B
Sat 11:33:42 AM 51.4603 -0.6212 255° West 222 255 4,200 3,000 Climbing FlightAware ADS-B
Sat 11:33:52 AM 51.4580 -0.6373 257° West 224 258 4,600 2,286 Climbing FlightAware ADS-B
Sat 11:34:03 AM 51.4557 -0.6550 258° West 228 262 5,000 2,118 Climbing FlightAware ADS-B
Sat 11:34:09 AM 51.4545 -0.6655 260° West 230 265 5,200 2,000 Climbing FlightAware ADS-B
Sat 11:34:15 AM 51.4539 -0.6751 264° West 234 269 5,400 2,308 Climbing FlightAware ADS-B
Sat 11:34:22 AM 51.4535 -0.6874 267° West 239 275 5,700 1,636 Climbing FlightAware ADS-B
Sat 11:34:37 AM 51.4532 -0.7146 269° West 245 282 6,000 889 Climbing FlightAware ADS-B
Sat 11:34:49 AM 51.4532 -0.7366 270° West 246 283 6,100 222 Climbing FlightAware ADS-B
Sat 11:35:04 AM 51.4534 -0.7641 271° West 245 282 6,100 581 Level FlightAware ADS-B
Sat 11:35:20 AM 51.4534 -0.7928 270° West 247 284 6,400 1,313 Climbing FlightAware ADS-B
Sat 11:35:36 AM 51.4532 -0.8219 269° West 249 287 6,800 1,161 Climbing FlightAware ADS-B
Sat 11:35:51 AM 51.4531 -0.8504 270° West 248 285 7,000 500 Climbing FlightAware ADS-B
Sat 11:36:00 AM 51.4529 -0.8669 269° West 248 285 7,000  Level FlightAware ADS-B
Sat 11:36:05 AM 51.4523 -0.8753 263° West 247 284 7,000  Level FlightAware ADS-B
Sat 11:36:08 AM 51.4517 -0.8808 260° West 245 282 7,000  Level FlightAware ADS-B
Sat 11:36:11 AM 51.4509 -0.8862 257° West 242 278 7,000  Level FlightAware ADS-B
Sat 11:36:19 AM 51.4482 -0.9004 253° West 240 276 7,000  Level FlightAware ADS-B
Sat 11:36:35 AM 51.4422 -0.9277 251° West 241 277 7,000 938 Level FlightAware ADS-B
Sat 11:36:51 AM 51.4363 -0.9539 250° West 244 281 7,500 2,250 Climbing FlightAware ADS-B
Sat 11:37:07 AM 51.4301 -0.9819 250° West 244 281 8,200 2,357 Climbing FlightAware ADS-B
Sat 11:37:19 AM 51.4255 -1.0023 250° West 247 284 8,600 2,000 Climbing FlightAware ADS-B
Sat 11:37:22 AM 51.4243 -1.0079 251° West 247 284 8,700 2,571 Climbing FlightAware ADS-B
Sat 11:37:26 AM 51.4233 -1.0146 257° West 249 287 8,900 2,571 Climbing FlightAware ADS-B
Sat 11:37:29 AM 51.4227 -1.0204 261° West 251 289 9,000 2,000 Climbing FlightAware ADS-B
Sat 11:37:32 AM 51.4223 -1.0260 263° West 253 291 9,100 2,571 Climbing FlightAware ADS-B
Sat 11:37:36 AM 51.4222 -1.0335 269° West 255 293 9,300 2,250 Climbing FlightAware ADS-B
Sat 11:37:40 AM 51.4225 -1.0407 274° West 256 295 9,400 1,800 Climbing FlightAware ADS-B
Sat 11:37:46 AM 51.4237 -1.0513 280° West 260 299 9,600 2,667 Climbing FlightAware ADS-B
Sat 11:37:49 AM 51.4250 -1.0577 288° West 263 303 9,800 2,769 Climbing FlightAware ADS-B
Sat 11:37:59 AM 51.4299 -1.0745 295° West 266 306 10,200 -1,161 Climbing FlightAware ADS-B
Sat 11:38:20 AM 51.4432 -1.1131 295° West 306 352 9,200 1,400 Descending FlightAware UK
Sat 11:38:29 AM 51.4487 -1.1299 295° West 292 336 10,900 1,000 Climbing FlightAware ADS-B
Sat 11:38:44 AM 51.4589 -1.1604 295° West 336 387 9,600 1,200 Descending FlightAware UK
Sat 11:38:59 AM 51.4684 -1.1912 295° West 319 367 11,500 1,400 Climbing FlightAware ADS-B
Sat 11:39:14 AM 51.4790 -1.2243 295° West 364 419 10,300 1,548 Descending FlightAware UK
Sat 11:39:30 AM 51.4897 -1.2590 295° West 345 397 12,300 1,667 Climbing FlightAware ADS-B
Sat 11:39:50 AM 51.5047 -1.3067 295° West 388 447 11,300 1,400 Descending FlightAware UK
Sat 11:40:00 AM 51.5113 -1.3284 295° West 346 398 13,000 600 Climbing FlightAware ADS-B
Sat 11:40:20 AM 51.5260 -1.3756 295° West 390 449 11,600 968 Descending FlightAware UK
Sat 11:40:31 AM 51.5332 -1.3995 295° West 351 404 13,500 5,786 Climbing FlightAware ADS-B
Sat 11:40:48 AM 51.5452 -1.4407 295° West 351 404 14,300 2,850 Climbing FlightAware ADS-B
Sat 11:41:11 AM 51.5592 -1.4972 292° West 354 407 15,400 409 Climbing FlightAware ADS-B
Sat 11:41:32 AM 51.5715 -1.5487 292° West 404 465 14,600 2,250 Descending FlightAware UK
Sat 11:41:43 AM 51.5781 -1.5757 292° West 361 415 16,600 2,400 Climbing FlightAware ADS-B
Sat 11:42:02 AM 51.5899 -1.6244 292° West 410 472 15,800 2,200 Descending FlightAware UK
Sat 11:42:13 AM 51.5972 -1.6526 292° West 370 426 17,700 5,063 Climbing FlightAware ADS-B
Sat 11:42:34 AM 51.6107 -1.7050 293° West 373 429 18,500 2,250 Climbing FlightAware ADS-B
Sat 11:42:53 AM 51.6249 -1.7525 296° West 378 435 19,200 2,211 Climbing FlightAware ADS-B
Sat 11:43:12 AM 51.6417 -1.8001 300° West 384 442 19,900 -308 Climbing FlightAware ADS-B
Sat 11:43:32 AM 51.6612 -1.8486 300° West 428 493 19,000 1,875 Descending FlightAware UK
Sat 11:43:44 AM 51.6724 -1.8776 300° West 393 452 20,900 3,857 Climbing FlightAware ADS-B
Sat 11:44:14 AM 51.7024 -1.9539 302° West 402 463 21,700 -125 Climbing FlightAware ADS-B
Sat 11:44:32 AM 51.7201 -1.9987 302° West 442 509 20,800 1,935 Descending FlightAware UK
Sat 11:44:45 AM 51.7334 -2.0322 302° West 410 472 22,700 1,833 Climbing FlightAware ADS-B
Sat 11:45:08 AM 51.7568 -2.0914 302° West 454 522 21,900 1,935 Descending FlightAware UK
Sat 11:45:16 AM 51.7647 -2.1113 302° West 413 475 23,700 1,750 Climbing FlightAware ADS-B
Sat 11:45:32 AM 51.7814 -2.1532 302° West 456 525 22,600 1,800 Descending FlightAware UK
Sat 11:45:46 AM 51.7963 -2.1910 302° West 418 481 24,600 2,000 Climbing FlightAware ADS-B
Sat 11:46:02 AM 51.8125 -2.2319 302° West 466 536 23,600 2,129 Descending FlightAware UK
Sat 11:46:17 AM 51.8283 -2.2722 302° West 416 479 25,700 2,200 Climbing FlightAware ADS-B
Sat 11:46:32 AM 51.8435 -2.3108 302° West 472 543 24,700 1,935 Descending FlightAware UK
Sat 11:46:48 AM 51.8599 -2.3526 302° West 417 480 26,700 1,500 Climbing FlightAware ADS-B
Sat 11:47:08 AM 51.8806 -2.4055 302° West 474 545 25,600 1,400 Descending FlightAware UK
Sat 11:47:18 AM 51.8918 -2.4348 302° West 424 488 27,400 1,200 Climbing FlightAware ADS-B
Sat 11:47:38 AM 51.9120 -2.4870 302° West 480 552 26,200 1,313 Descending FlightAware UK
Sat 11:47:50 AM 51.9254 -2.5213 302° West 431 496 28,100 1,655 Climbing FlightAware ADS-B
Sat 11:48:07 AM 51.9438 -2.5683 302° West 482 555 27,000 -1,371 Descending FlightAware UK
Sat 11:48:25 AM 51.9630 -2.6181 302° West 486 559 27,300 1,167 Climbing FlightAware UK
Sat 11:48:43 AM 51.9824 -2.6685 302° West 488 562 27,700 4,444 Climbing FlightAware UK
Sat 11:48:52 AM 51.9870 -2.6810 302° West 443 510 29,300 1,250 Climbing FlightAware ADS-B
Sat 11:49:07 AM 52.0085 -2.7360 302° West 492 566 28,200 -1,455 Descending FlightAware UK
Sat 11:49:25 AM 52.0283 -2.7878 302° West 496 571 28,500 4,800 Climbing FlightAware UK
Sat 11:49:32 AM 52.0320 -2.7980 302° West 447 514 30,200 2,250 Climbing FlightAware ADS-B
Sat 11:49:49 AM 52.0543 -2.8555 302° West 492 566 29,400 -343 Descending FlightAware UK
Sat 11:50:07 AM 52.0735 -2.9057 302° West 492 566 30,000 5,739 Climbing FlightAware UK
Sat 11:50:12 AM 52.0730 -2.9050 302° West 443 510 31,600 1,000 Climbing FlightAware ADS-B
Sat 11:50:37 AM 52.1055 -2.9892 302° West 492 566 30,500 533 Descending FlightAware UK
Sat 11:50:57 AM 52.1220 -3.0330 302° West 429 494 32,000  Climbing FlightAware ADS-B
Sat 11:51:13 AM 52.1423 -3.0887 302° West 488 562 30,500  Descending FlightAware UK
Sat 11:51:37 AM 52.1650 -3.1490 302° West 427 491 32,000  Climbing FlightAware ADS-B
Sat 11:51:55 AM 52.1853 -3.2033 302° West 488 562 30,500 -2,500 Descending FlightAware UK
Sat 11:52:13 AM 52.2040 -3.2531 302° West 488 562 30,500 4,091 Level FlightAware UK
Sat 11:52:17 AM 52.2040 -3.2530 302° West 426 490 32,000  Climbing FlightAware ADS-B
Sat 11:52:37 AM 52.2286 -3.3184 302° West 486 559 30,500  Descending FlightAware UK
Sat 11:52:57 AM 52.2460 -3.3630 302° West 426 490 32,000  Climbing FlightAware ADS-B
Sat 11:53:13 AM 52.2658 -3.4169 302° West 486 559 30,500  Descending FlightAware UK
Sat 11:53:31 AM 52.2847 -3.4669 302° West 427 491 32,000  Climbing FlightAware ADS-B
Sat 11:53:49 AM 52.3031 -3.5154 302° West 486 559 30,500  Descending FlightAware UK
Sat 11:54:06 AM 52.3206 -3.5621 302° West 427 491 32,000  Climbing FlightAware ADS-B
Sat 11:54:25 AM 52.3403 -3.6140 302° West 486 559 30,500  Descending FlightAware UK
Sat 11:54:36 AM 52.3521 -3.6450 302° West 427 491 32,000  Climbing FlightAware ADS-B
Sat 11:54:55 AM 52.3715 -3.6962 302° West 486 559 30,500  Descending FlightAware UK
Sat 11:55:12 AM 52.3887 -3.7411 302° West 427 491 32,000  Climbing FlightAware ADS-B
Sat 11:55:31 AM 52.4092 -3.7946 302° West 486 559 30,500  Descending FlightAware UK
Sat 11:55:45 AM 52.4233 -3.8310 302° West 426 490 32,000  Climbing FlightAware ADS-B
Sat 11:56:01 AM 52.4407 -3.8762 302° West 486 559 30,500 -2,647 Descending FlightAware UK
Sat 11:56:19 AM 52.4597 -3.9249 303° West 486 559 30,500 2,500 Level FlightAware UK
Sat 11:56:37 AM 52.4740 -3.9630 303° West 421 484 32,000  Climbing FlightAware ADS-B
Sat 11:56:55 AM 52.4969 -4.0214 303° West 484 557 30,500 -2,500 Descending FlightAware UK
Sat 11:57:13 AM 52.5155 -4.0700 302° West 484 557 30,500 4,091 Level FlightAware UK
Sat 11:57:17 AM 52.5150 -4.0700 302° West 419 482 32,000  Climbing FlightAware ADS-B
Sat 11:57:43 AM 52.5461 -4.1501 302° West 480 552 30,500  Descending FlightAware UK
Sat 11:57:47 AM 52.5460 -4.1510 302° West 420 483 32,000  Climbing FlightAware ADS-B
Sat 11:58:07 AM 52.5710 -4.2149 302° West 480 552 30,500 -2,368 Descending FlightAware UK
Sat 11:58:25 AM 52.5897 -4.2637 302° West 482 555 30,500 3,600 Level FlightAware UK
Sat 11:58:32 AM 52.5890 -4.2620 302° West 423 487 32,000  Climbing FlightAware ADS-B
Sat 11:58:49 AM 52.6149 -4.3290 302° West 482 555 30,500 -2,571 Descending FlightAware UK
Sat 11:59:07 AM 52.6338 -4.3782 302° West 480 552 30,500 3,214 Level FlightAware UK
Sat 11:59:17 AM 52.6400 -4.3960 302° West 425 489 32,000  Climbing FlightAware ADS-B
Sat 11:59:37 AM 52.6653 -4.4607 302° West 486 559 30,500 -2,368 Descending FlightAware UK
Sat 11:59:55 AM 52.6843 -4.5103 302° West 488 562 30,500 4,500 Level FlightAware UK
Sat 11:59:57 AM 52.6830 -4.5070 302° West 426 490 32,000  Climbing FlightAware ADS-B
Sat 12:00:13 PM 52.7033 -4.5597 302° West 484 557 30,500 -2,647 Descending FlightAware UK
Sat 12:00:31 PM 52.7224 -4.6089 303° West 484 557 30,500 3,103 Level FlightAware UK
Sat 12:00:42 PM 52.7290 -4.6260 303° West 424 488 32,000  Climbing FlightAware ADS-B
Sat 12:01:01 PM 52.7525 -4.6920 303° West 482 555 30,500 -2,432 Descending FlightAware UK
Sat 12:01:19 PM 52.7699 -4.7428 300° West 484 557 30,500 4,286 Level FlightAware UK
Sat 12:01:22 PM 52.7680 -4.7390 300° West 424 488 32,000  Climbing FlightAware ADS-B
Sat 12:01:37 PM 52.7873 -4.7935 300° West 484 557 30,500 -2,727 Descending FlightAware UK
Sat 12:01:55 PM 52.8047 -4.8442 300° West 484 557 30,500 3,000 Level FlightAware UK
Sat 12:02:07 PM 52.8150 -4.8740 300° West 424 488 32,000  Climbing FlightAware ADS-B
Sat 12:02:25 PM 52.8340 -4.9278 300° West 486 559 30,500  Descending FlightAware UK
Sat 12:02:47 PM 52.8530 -4.9830 300° West 423 487 32,000  Climbing FlightAware ADS-B
Sat 12:03:07 PM 52.8751 -5.0456 300° West 482 555 30,500  Descending FlightAware UK
Sat 12:03:27 PM 52.8920 -5.0930 300° West 425 489 32,000  Climbing FlightAware ADS-B
Sat 12:03:43 PM 52.9104 -5.1469 300° West 480 552 30,500 -2,647 Descending FlightAware UK
Sat 12:04:01 PM 52.9280 -5.1977 300° West 484 557 30,500 3,103 Level FlightAware UK
Sat 12:04:12 PM 52.9370 -5.2240 300° West 427 491 32,000 1,765 Climbing FlightAware ADS-B
Sat 12:04:52 PM 52.9760 -5.3380 300° West 425 489 32,000 -1,364 Level FlightAware ADS-B
Sat 12:05:18 PM 53.0042 -5.4185 300° West 482 555 30,500  Descending FlightAware UK
Sat 12:05:32 PM 53.0150 -5.4520 300° West 428 493 32,000  Climbing FlightAware ADS-B
Sat 12:06:00 PM 53.0450 -5.5387 300° West 482 555 30,500 -267 Descending FlightAware UK
Sat 12:06:17 PM 53.0580 -5.5770 300° West 428 493 31,800 -1,500 Climbing FlightAware ADS-B
Sat 12:06:36 PM 53.0802 -5.6420 300° West 480 552 29,600 -3,892 Descending FlightAware UK
Sat 12:06:54 PM 53.0980 -5.6944 300° West 486 559 29,400 4,000 Descending FlightAware UK
Sat 12:06:57 PM 53.1000 -5.6990 300° West 440 506 31,000  Climbing FlightAware ADS-B
Sat 12:07:12 PM 53.1163 -5.7485 300° West 488 562 29,400 -2,727 Descending FlightAware UK
Sat 12:07:30 PM 53.1342 -5.8015 299° West 488 562 29,500 3,840 Climbing FlightAware UK
Sat 12:07:37 PM 53.1390 -5.8170 299° West 439 505 31,000  Climbing FlightAware ADS-B
Sat 12:07:54 PM 53.1581 -5.8723 299° West 486 559 29,500 -2,571 Descending FlightAware UK
Sat 12:08:12 PM 53.1759 -5.9252 299° West 484 557 29,500 3,214 Level FlightAware UK
Sat 12:08:22 PM 53.1830 -5.9470 299° West 438 504 31,000  Climbing FlightAware ADS-B
Sat 12:08:42 PM 53.2052 -6.0130 299° West 484 557 29,500  Descending FlightAware UK
Sat 12:09:02 PM 53.2190 -6.0540 299° West 438 504 31,000  Climbing FlightAware ADS-B
Sat 12:09:18 PM 53.2406 -6.1192 299° West 486 559 29,500 -2,647 Descending FlightAware UK
Sat 12:09:36 PM 53.2585 -6.1728 299° West 486 559 29,500 3,103 Level FlightAware UK
Sat 12:09:47 PM 53.2650 -6.1940 299° West 437 503 31,000  Climbing FlightAware ADS-B
Sat 12:10:06 PM 53.2876 -6.2608 299° West 486 559 29,500 -2,432 Descending FlightAware UK
Sat 12:10:24 PM 53.3051 -6.3140 299° West 484 557 29,500 4,286 Level FlightAware UK
Sat 12:10:27 PM 53.3040 -6.3120 299° West 437 503 31,000  Climbing FlightAware ADS-B
Sat 12:10:48 PM 53.3285 -6.3848 299° West 484 557 29,500 -2,308 Descending FlightAware UK
Sat 12:11:06 PM 53.3460 -6.4380 299° West 486 559 29,500 3,750 Level FlightAware UK
Sat 12:11:12 PM 53.3500 -6.4500 299° West 437 503 31,000  Climbing FlightAware ADS-B
Sat 12:11:30 PM 53.3694 -6.5090 299° West 486 559 29,500 -2,500 Descending FlightAware UK
Sat 12:11:48 PM 53.3868 -6.5623 299° West 488 562 29,500 4,091 Level FlightAware UK
Sat 12:11:52 PM 53.3870 -6.5620 299° West 436 502 31,000  Climbing FlightAware ADS-B
Sat 12:12:12 PM 53.4100 -6.6335 299° West 486 559 29,500 -2,368 Descending FlightAware UK
Sat 12:12:30 PM 53.4273 -6.6862 299° West 486 559 29,500 4,500 Level FlightAware UK
Sat 12:12:32 PM 53.4270 -6.6840 299° West 436 502 31,000  Climbing FlightAware ADS-B
Sat 12:12:48 PM 53.4446 -6.7396 299° West 488 562 29,500 -2,647 Descending FlightAware UK
Sat 12:13:06 PM 53.4619 -6.7929 299° West 486 559 29,500 3,103 Level FlightAware UK
Sat 12:13:17 PM 53.4700 -6.8180 299° West 435 501 31,000  Climbing FlightAware ADS-B
Sat 12:13:36 PM 53.4906 -6.8819 299° West 486 559 29,500 -2,432 Descending FlightAware UK
Sat 12:13:54 PM 53.5078 -6.9354 298° West 486 559 29,500 4,286 Level FlightAware UK
Sat 12:13:57 PM 53.5080 -6.9370 298° West 436 502 31,000  Climbing FlightAware ADS-B
Sat 12:14:12 PM 53.5250 -6.9890 298° West 486 559 29,500 -2,308 Descending FlightAware UK
Sat 12:14:36 PM 53.5479 -7.0604 298° West 486 559 29,500 3,000 Level FlightAware UK
Sat 12:14:42 PM 53.5520 -7.0730 298° West 434 499 31,000  Climbing FlightAware ADS-B
Sat 12:15:00 PM 53.5708 -7.1318 298° West 486 559 29,500 -2,500 Descending FlightAware UK
Sat 12:15:18 PM 53.5880 -7.1854 298° West 486 559 29,500 4,091 Level FlightAware UK
Sat 12:15:22 PM 53.5900 -7.1930 298° West 435 501 31,000  Climbing FlightAware ADS-B
Sat 12:15:42 PM 53.6107 -7.2570 298° West 486 559 29,500 -2,368 Descending FlightAware UK
Sat 12:16:00 PM 53.6276 -7.3101 298° West 486 559 29,500 4,500 Level FlightAware UK
Sat 12:16:02 PM 53.6260 -7.3050 298° West 430 495 31,000  Climbing FlightAware ADS-B
Sat 12:16:18 PM 53.6445 -7.3637 298° West 486 559 29,500 -2,647 Descending FlightAware UK
Sat 12:16:36 PM 53.6614 -7.4173 298° West 486 559 29,500 3,103 Level FlightAware UK
Sat 12:16:47 PM 53.6680 -7.4380 298° West 431 496 31,000  Climbing FlightAware ADS-B
Sat 12:17:06 PM 53.6896 -7.5069 298° West 488 562 29,500 -2,432 Descending FlightAware UK
Sat 12:17:24 PM 53.7065 -7.5607 298° West 484 557 29,500 4,286 Level FlightAware UK
Sat 12:17:27 PM 53.7050 -7.5550 298° West 430 495 31,000  Climbing FlightAware ADS-B
Sat 12:17:42 PM 53.7234 -7.6146 298° West 486 559 29,500 -2,727 Descending FlightAware UK
Sat 12:18:00 PM 53.7403 -7.6686 298° West 484 557 29,500 3,600 Level FlightAware UK
Sat 12:18:07 PM 53.7430 -7.6780 298° West 430 495 31,000  Climbing FlightAware ADS-B
Sat 12:18:24 PM 53.7628 -7.7405 298° West 484 557 29,500 -2,571 Descending FlightAware UK
Sat 12:18:42 PM 53.7795 -7.7945 298° West 484 557 29,500 3,214 Level FlightAware UK
Sat 12:18:52 PM 53.7840 -7.8100 298° West 432 497 31,000  Climbing FlightAware ADS-B
Sat 12:19:12 PM 53.8075 -7.8849 298° West 486 559 29,500 -2,368 Descending FlightAware UK
Sat 12:19:30 PM 53.8244 -7.9394 298° West 486 559 29,500 4,500 Level FlightAware UK
Sat 12:19:32 PM 53.8230 -7.9350 298° West 434 499 31,000  Climbing FlightAware ADS-B
Sat 12:19:48 PM 53.8412 -7.9939 298° West 486 559 29,500 -2,647 Descending FlightAware UK
Sat 12:20:06 PM 53.8580 -8.0486 298° West 484 557 29,500 3,103 Level FlightAware UK
Sat 12:20:17 PM 53.8650 -8.0710 298° West 433 498 31,000  Climbing FlightAware ADS-B
Sat 12:20:36 PM 53.8860 -8.1398 298° West 486 559 29,500 -2,432 Descending FlightAware UK
Sat 12:20:54 PM 53.9029 -8.1945 298° West 486 559 29,500 4,286 Level FlightAware UK
Sat 12:20:57 PM 53.9010 -8.1900 298° West 434 499 31,000  Climbing FlightAware ADS-B
Sat 12:21:12 PM 53.9196 -8.2494 298° West 486 559 29,500 -2,727 Descending FlightAware UK
Sat 12:21:30 PM 53.9363 -8.3043 297° West 486 559 29,500 3,000 Level FlightAware UK
Sat 12:21:42 PM 53.9440 -8.3280 297° West 435 501 31,000  Climbing FlightAware ADS-B
Sat 12:22:00 PM 53.9641 -8.3959 297° West 488 562 29,500 -2,500 Descending FlightAware UK
Sat 12:22:18 PM 53.9807 -8.4509 297° West 486 559 29,500 4,091 Level FlightAware UK
Sat 12:22:22 PM 53.9800 -8.4500 297° West 433 498 31,000  Climbing FlightAware ADS-B
Sat 12:22:42 PM 54.0028 -8.5241 297° West 488 562 29,500 -2,368 Descending FlightAware UK
Sat 12:23:00 PM 54.0192 -8.5785 297° West 486 559 29,500 4,500 Level FlightAware UK
Sat 12:23:02 PM 54.0170 -8.5730 297° West 433 498 31,000  Climbing FlightAware ADS-B
Sat 12:23:18 PM 54.0357 -8.6334 297° West 486 559 29,500 -2,647 Descending FlightAware UK
Sat 12:23:36 PM 54.0522 -8.6883 297° West 488 562 29,500 3,103 Level FlightAware UK
Sat 12:23:47 PM 54.0570 -8.7040 297° West 436 502 31,000  Climbing FlightAware ADS-B
Sat 12:24:06 PM 54.0795 -8.7797 297° West 486 559 29,500 -2,432 Descending FlightAware UK
Sat 12:24:24 PM 54.0958 -8.8347 297° West 486 559 29,500 4,286 Level FlightAware UK
Sat 12:24:27 PM 54.0950 -8.8310 297° West 436 502 31,000  Climbing FlightAware ADS-B
Sat 12:24:42 PM 54.1122 -8.8899 297° West 486 559 29,500 -2,727 Descending FlightAware UK
Sat 12:25:00 PM 54.1286 -8.9452 297° West 486 559 29,500 3,600 Level FlightAware UK
Sat 12:25:07 PM 54.1310 -8.9550 297° West 438 504 31,000 1,731 Climbing FlightAware ADS-B
Sat 12:25:52 PM 54.1720 -9.0930 297° West 439 505 31,000  Level FlightAware ADS-B
Sat 12:26:32 PM 54.2090 -9.2200 297° West 440 506 31,000  Level FlightAware ADS-B
Sat 12:27:17 PM 54.2500 -9.3580 297° West 439 505 31,000  Level FlightAware ADS-B
Sat 12:27:57 PM 54.2870 -9.4870 296° West 435 501 31,000  Level FlightAware ADS-B
Sat 12:28:42 PM 54.3270 -9.6270 296° West 433 498 31,000  Level FlightAware ADS-B
Sat 12:29:22 PM 54.3610 -9.7450 296° West 425 489 31,000  Level FlightAware ADS-B
Sat 12:30:07 PM 54.4000 -9.8810 296° West 422 486 31,000  Level FlightAware ADS-B
Sat 12:30:47 PM 54.4340 -10.0000 296° West 419 482 31,000  Level FlightAware ADS-B
Sat 12:31:27 PM 54.4720 -10.1200 299° West 433 498 31,000  Level FlightAware ADS-B
Sat 12:31:57 PM 54.5130 -10.1990 312° West 447 514 31,000  Level FlightAware ADS-B
Sat 12:32:37 PM 54.5710 -10.3010 314° West 456 525 31,000  Level FlightAware ADS-B
Sat 12:33:22 PM 54.6390 -10.4180 315° West 447 514 31,000  Level FlightAware ADS-B
Sat 12:34:17 PM 54.7220 -10.5640 315° West 450 518 31,000  Level FlightAware ADS-B
Sat 12:35:27 PM 54.8260 -10.7500 314° West 451 519 31,000  Level FlightAware ADS-B
Sat 12:36:37 PM 54.9280 -10.9340 314° West 450 518 31,000  Level FlightAware ADS-B
Sat 12:37:57 PM 55.0440 -11.1450 314° West 452 520 31,000  Level FlightAware ADS-B
Sat 12:39:12 PM 55.1550 -11.3460 314° West 452 520 31,000  Level FlightAware ADS-B
Sat 12:40:17 PM 55.2490 -11.5210 313° West 454 522 31,000  Level FlightAware ADS-B
Sat 12:41:27 PM 55.3390 -11.6860 314° West 464 534 31,000  Level FlightAware ADS-B
Sat 12:42:27 PM 55.4300 -11.8580 313° West 469 540 31,000  Level FlightAware ADS-B
Sat 12:43:07 PM 55.4810 -11.9530 313° West 469 540 31,000  Level FlightAware ADS-B
Sat 12:43:47 PM 55.5310 -12.0480 313° West 469 540 31,000  Level FlightAware ADS-B
Sat 12:44:42 PM 55.6360 -12.2470 313° West 472 543 31,000  Level FlightAware ADS-B
Sat 12:45:22 PM 55.6850 -12.3450 312° West 472 543 31,000  Level FlightAware ADS-B
Sat 12:46:12 PM 55.7470 -12.4670 312° West 472 543 31,000  Level FlightAware ADS-B
Sat 12:46:52 PM 55.7970 -12.5660 312° West 472 543 31,000  Level FlightAware ADS-B
Sat 12:47:32 PM 55.8470 -12.6640 312° West 472 543 31,000  Level FlightAware ADS-B
Sat 12:48:12 PM 55.8960 -12.7620 312° West 472 543 31,000  Level FlightAware ADS-B
Sat 12:48:52 PM 55.9460 -12.8610 312° West 472 543 31,000  Level FlightAware ADS-B
Sat 12:49:42 PM 56.0080 -12.9840 312° West 472 543 31,000  Level FlightAware ADS-B
Sat 12:50:22 PM 56.0580 -13.0830 312° West 472 543 31,000  Level FlightAware ADS-B
Sat 12:51:02 PM 56.1070 -13.1820 312° West 472 543 31,000  Level FlightAware ADS-B
Sat 12:51:42 PM 56.1570 -13.2810 312° West 472 543 31,000  Level FlightAware ADS-B
Sat 12:52:22 PM 56.2070 -13.3800 312° West 472 543 31,000  Level FlightAware ADS-B
Sat 12:53:12 PM 56.2690 -13.5040 312° West 472 543 31,000  Level FlightAware ADS-B
Sat 12:53:52 PM 56.3190 -13.6030 312° West 472 543 31,000 Level FlightAware ADS-B
Sat 12:56:00 PM 56.4565 -14.0158 301° West  Level Estimated
Sat 12:57:00 PM 56.5205 -14.2103 301° West  Level Estimated
Sat 12:58:00 PM 56.5842 -14.4054 301° West  Level Estimated
Sat 12:59:00 PM 56.6476 -14.6013 301° West  Level Estimated
Sat 01:00:00 PM 56.7107 -14.7977 300° West  Level Estimated
Sat 01:01:00 PM 56.7734 -14.9949 300° West  Level Estimated
Sat 01:02:00 PM 56.8359 -15.1927 300° West  Level Estimated
Sat 01:03:00 PM 56.8980 -15.3911 300° West  Level Estimated
Sat 01:04:00 PM 56.9598 -15.5903 300° West  Level Estimated
Sat 01:05:00 PM 57.0214 -15.7900 300° West  Level Estimated
Sat 01:06:00 PM 57.0825 -15.9905 299° West  Level Estimated
Sat 01:07:00 PM 57.1434 -16.1916 299° West  Level Estimated
Sat 01:08:00 PM 57.2039 -16.3933 299° West  Level Estimated
Sat 01:09:00 PM 57.2642 -16.5958 299° West  Level Estimated
Sat 01:10:00 PM 57.3241 -16.7988 299° West  Level Estimated
Sat 01:11:00 PM 57.3836 -17.0026 299° West  Level Estimated
Sat 01:12:00 PM 57.4428 -17.2070 298° West  Level Estimated
Sat 01:13:00 PM 57.5018 -17.4120 298° West  Level Estimated
Sat 01:14:00 PM 57.5603 -17.6178 298° West  Level Estimated
Sat 01:15:00 PM 57.6185 -17.8242 298° West  Level Estimated
Sat 01:16:00 PM 57.6764 -18.0312 298° West  Level Estimated
Sat 01:17:00 PM 57.7340 -18.2389 298° West  Level Estimated
Sat 01:18:00 PM 57.7912 -18.4473 297° West  Level Estimated
Sat 01:19:00 PM 57.8481 -18.6563 297° West  Level Estimated
Sat 01:20:00 PM 57.9046 -18.8660 297° West  Level Estimated
Sat 01:21:00 PM 57.9608 -19.0763 297° West  Level Estimated
Sat 01:22:00 PM 58.0166 -19.2873 297° West  Level Estimated
Sat 01:23:00 PM 58.0721 -19.4990 296° West  Level Estimated
Sat 01:24:00 PM 58.1273 -19.7113 296° West  Level Estimated
Sat 01:25:00 PM 58.1820 -19.9243 296° West  Level Estimated
Sat 01:26:00 PM 58.2365 -20.1379 296° West  Level Estimated
Sat 01:27:00 PM 58.2905 -20.3522 296° West  Level Estimated
Sat 01:28:00 PM 58.3442 -20.5672 296° West  Level Estimated
Sat 01:29:00 PM 58.3975 -20.7827 295° West  Level Estimated
Sat 01:30:00 PM 58.4505 -20.9990 295° West  Level Estimated
Sat 01:31:00 PM 58.5032 -21.2159 295° West  Level Estimated
Sat 01:32:00 PM 58.5554 -21.4334 295° West  Level Estimated
Sat 01:33:00 PM 58.6073 -21.6516 295° West  Level Estimated
Sat 01:34:00 PM 58.6588 -21.8704 294° West  Level Estimated
Sat 01:35:00 PM 58.7099 -22.0899 294° West  Level Estimated
Sat 01:36:00 PM 58.7607 -22.3100 294° West  Level Estimated
Sat 01:37:00 PM 58.8111 -22.5308 294° West  Level Estimated
Sat 01:38:00 PM 58.8611 -22.7522 294° West  Level Estimated
Sat 01:39:00 PM 58.9107 -22.9742 293° West  Level Estimated
Sat 01:40:00 PM 58.9600 -23.1969 293° West  Level Estimated
Sat 01:41:00 PM 59.0088 -23.4202 293° West  Level Estimated
Sat 01:42:00 PM 59.0573 -23.6442 293° West  Level Estimated
Sat 01:43:00 PM 59.1054 -23.8687 293° West  Level Estimated
Sat 01:44:00 PM 59.1531 -24.0939 293° West  Level Estimated
Sat 01:45:00 PM 59.2004 -24.3198 292° West  Level Estimated
Sat 01:46:00 PM 59.2473 -24.5462 292° West  Level Estimated
Sat 01:47:00 PM 59.2938 -24.7733 292° West  Level Estimated
Sat 01:48:00 PM 59.3400 -25.0010 292° West  Level Estimated
Sat 01:49:00 PM 59.3857 -25.2293 292° West  Level Estimated
Sat 01:50:00 PM 59.4310 -25.4582 291° West  Level Estimated
Sat 01:51:00 PM 59.4760 -25.6877 291° West  Level Estimated
Sat 01:52:00 PM 59.5205 -25.9179 291° West  Level Estimated
Sat 01:53:00 PM 59.5646 -26.1486 291° West  Level Estimated
Sat 01:54:00 PM 59.6083 -26.3800 291° West  Level Estimated
Sat 01:55:00 PM 59.6516 -26.6119 290° West  Level Estimated
Sat 01:56:00 PM 59.6945 -26.8445 290° West  Level Estimated
Sat 01:57:00 PM 59.7370 -27.0776 290° West  Level Estimated
Sat 01:58:00 PM 59.7791 -27.3113 290° West  Level Estimated
Sat 01:59:00 PM 59.8207 -27.5457 290° West  Level Estimated
Sat 02:00:00 PM 59.8620 -27.7806 289° West  Level Estimated
Sat 02:01:00 PM 59.9028 -28.0160 289° West  Level Estimated
Sat 02:02:00 PM 59.9432 -28.2521 289° West  Level Estimated
Sat 02:03:00 PM 59.9832 -28.4887 289° West  Level Estimated
Sat 02:04:00 PM 60.0227 -28.7259 289° West  Level Estimated
Sat 02:05:00 PM 60.0618 -28.9637 288° West  Level Estimated
Sat 02:06:00 PM 60.1005 -29.2020 288° West  Level Estimated
Sat 02:07:00 PM 60.1388 -29.4409 288° West  Level Estimated
Sat 02:08:00 PM 60.1766 -29.6804 288° West  Level Estimated
Sat 02:09:00 PM 60.2140 -29.9203 288° West  Level Estimated
Sat 02:10:00 PM 60.2510 -30.1609 287° West  Level Estimated
Sat 02:11:00 PM 60.2875 -30.4020 287° West  Level Estimated
Sat 02:12:00 PM 60.3236 -30.6436 287° West  Level Estimated
Sat 02:13:00 PM 60.3592 -30.8857 287° West  Level Estimated
Sat 02:14:00 PM 60.3945 -31.1284 286° West  Level Estimated
Sat 02:15:00 PM 60.4292 -31.3716 286° West  Level Estimated
Sat 02:16:00 PM 60.4636 -31.6153 286° West  Level Estimated
Sat 02:17:00 PM 60.4974 -31.8595 286° West  Level Estimated
Sat 02:18:00 PM 60.5309 -32.1042 286° West  Level Estimated
Sat 02:19:00 PM 60.5639 -32.3494 285° West  Level Estimated
Sat 02:20:00 PM 60.5964 -32.5952 285° West  Level Estimated
Sat 02:21:00 PM 60.6285 -32.8414 285° West  Level Estimated
Sat 02:22:00 PM 60.6601 -33.0881 285° West  Level Estimated
Sat 02:23:00 PM 60.6913 -33.3353 285° West  Level Estimated
Sat 02:24:00 PM 60.7220 -33.5830 284° West  Level Estimated
Sat 02:25:00 PM 60.7523 -33.8311 284° West  Level Estimated
Sat 02:26:00 PM 60.7821 -34.0797 284° West  Level Estimated
Sat 02:27:00 PM 60.8114 -34.3288 284° West  Level Estimated
Sat 02:28:00 PM 60.8403 -34.5783 283° West  Level Estimated
Sat 02:29:00 PM 60.8687 -34.8282 283° West  Level Estimated
Sat 02:30:00 PM 60.8967 -35.0786 283° West  Level Estimated
Sat 02:31:00 PM 60.9241 -35.3295 283° West  Level Estimated
Sat 02:32:00 PM 60.9512 -35.5807 283° West  Level Estimated
Sat 02:33:00 PM 60.9777 -35.8324 282° West  Level Estimated
Sat 02:34:00 PM 61.0038 -36.0845 282° West  Level Estimated
Sat 02:35:00 PM 61.0294 -36.3371 282° West  Level Estimated
Sat 02:36:00 PM 61.0546 -36.5900 282° West  Level Estimated
Sat 02:37:00 PM 61.0792 -36.8433 281° West  Level Estimated
Sat 02:38:00 PM 61.1034 -37.0970 281° West  Level Estimated
Sat 02:39:00 PM 61.1271 -37.3511 281° West  Level Estimated
Sat 02:40:00 PM 61.1503 -37.6056 281° West  Level Estimated
Sat 02:41:00 PM 61.1731 -37.8604 281° West  Level Estimated
Sat 02:42:00 PM 61.1954 -38.1157 280° West  Level Estimated
Sat 02:43:00 PM 61.2172 -38.3712 280° West  Level Estimated
Sat 02:44:00 PM 61.2385 -38.6271 280° West  Level Estimated
Sat 02:45:00 PM 61.2593 -38.8834 280° West  Level Estimated
Sat 02:46:00 PM 61.2797 -39.1400 279° West  Level Estimated
Sat 02:47:00 PM 61.2995 -39.3969 279° West  Level Estimated
Sat 02:48:00 PM 61.3189 -39.6542 279° West  Level Estimated
Sat 02:49:00 PM 61.3378 -39.9117 279° West  Level Estimated
Sat 02:50:00 PM 61.3562 -40.1696 279° West  Level Estimated
Sat 02:51:00 PM 61.3741 -40.4278 278° West  Level Estimated
Sat 02:52:00 PM 61.3916 -40.6862 278° West  Level Estimated
Sat 02:53:00 PM 61.4085 -40.9450 278° West  Level Estimated
Sat 02:54:00 PM 61.4249 -41.2040 278° West  Level Estimated
Sat 02:55:00 PM 61.4409 -41.4633 277° West  Level Estimated
Sat 02:56:00 PM 61.4564 -41.7228 277° West  Level Estimated
Sat 02:57:00 PM 61.4713 -41.9826 277° West  Level Estimated
Sat 02:58:00 PM 61.4858 -42.2427 277° West  Level Estimated
Sat 02:59:00 PM 61.4998 -42.5030 277° West  Level Estimated
Sat 03:00:00 PM 61.5132 -42.7635 276° West  Level Estimated
Sat 03:01:00 PM 61.5262 -43.0242 276° West  Level Estimated
Sat 03:02:00 PM 61.5387 -43.2852 276° West  Level Estimated
Sat 03:03:00 PM 61.5507 -43.5463 276° West  Level Estimated
Sat 03:04:00 PM 61.5622 -43.8077 275° West  Level Estimated
Sat 03:05:00 PM 61.5732 -44.0693 275° West  Level Estimated
Sat 03:06:00 PM 61.5836 -44.3310 275° West  Level Estimated
Sat 03:07:00 PM 61.5936 -44.5929 275° West  Level Estimated
Sat 03:08:00 PM 61.6031 -44.8549 274° West  Level Estimated
Sat 03:09:00 PM 61.6121 -45.1172 274° West  Level Estimated
Sat 03:10:00 PM 61.6206 -45.3795 274° West  Level Estimated
Sat 03:11:00 PM 61.6286 -45.6421 274° West  Level Estimated
Sat 03:12:00 PM 61.6360 -45.9047 274° West  Level Estimated
Sat 03:13:00 PM 61.6430 -46.1674 273° West  Level Estimated
Sat 03:14:00 PM 61.6495 -46.4303 273° West  Level Estimated
Sat 03:15:00 PM 61.6554 -46.6933 273° West  Level Estimated
Sat 03:16:00 PM 61.6609 -46.9564 273° West  Level Estimated
Sat 03:17:00 PM 61.6658 -47.2196 272° West  Level Estimated
Sat 03:17:47 PM 64.0270 -50.3140 272° West 478 550 32,000  Level FlightAware ADS-B
Sat 03:18:00 PM 61.6703 -47.4828 272° West  Level Estimated
Sat 03:18:27 PM 64.0330 -50.5160 274° West 479 551 32,000  Level FlightAware ADS-B
Sat 03:19:07 PM 64.0400 -50.7160 275° West 479 551 32,000  Level FlightAware ADS-B
Sat 03:19:52 PM 64.0460 -50.9390 274° West 477 549 32,000  Level FlightAware ADS-B
Sat 03:20:32 PM 64.0520 -51.1410 274° West 475 547 32,000  Level FlightAware ADS-B
Sat 03:21:12 PM 64.0570 -51.3360 273° West 474 545 32,000  Level FlightAware ADS-B
Sat 03:21:57 PM 64.0620 -51.5700 273° West 475 547 32,000  Level FlightAware ADS-B
Sat 03:22:37 PM 64.0670 -51.7660 273° West 477 549 32,000  Level FlightAware ADS-B
Sat 03:23:22 PM 64.0720 -51.9880 273° West 478 550 32,000  Level FlightAware ADS-B
Sat 03:24:02 PM 64.0760 -52.1880 273° West 477 549 32,000  Level FlightAware ADS-B
Sat 03:24:47 PM 64.0800 -52.4220 272° West 476 548 32,000  Level FlightAware ADS-B
Sat 03:25:27 PM 64.0830 -52.6250 272° West 478 550 32,000  Level FlightAware ADS-B
Sat 03:26:07 PM 64.0860 -52.8240 272° West 479 551 32,000  Level FlightAware ADS-B
Sat 03:26:47 PM 64.0880 -53.0020 272° West 479 551 32,000  Level FlightAware ADS-B
Sat 03:27:27 PM 64.0890 -53.1750 271° West 479 551 32,000  Level FlightAware ADS-B
Sat 03:28:17 PM 64.0910 -53.3900 271° West 479 551 32,000  Level FlightAware ADS-B
Sat 03:28:57 PM 64.0920 -53.5630 271° West 479 551 32,000  Level FlightAware ADS-B
Sat 03:29:37 PM 64.0930 -53.7350 271° West 479 551 32,000  Level FlightAware ADS-B
Sat 03:30:17 PM 64.0950 -53.9080 272° West 479 551 32,000  Level FlightAware ADS-B
Sat 03:30:57 PM 64.0960 -54.0800 271° West 479 551 32,000  Level FlightAware ADS-B
Sat 03:31:47 PM 64.0970 -54.2960 271° West 479 551 32,000  Level FlightAware ADS-B
Sat 03:32:27 PM 64.0990 -54.4680 272° West 479 551 32,000  Level FlightAware ADS-B
Sat 03:33:07 PM 64.1000 -54.6410 271° West 479 551 32,000  Level FlightAware ADS-B
Sat 03:33:47 PM 64.1010 -54.8130 271° West 479 551 32,000  Level FlightAware ADS-B
Sat 03:34:27 PM 64.1030 -54.9860 272° West 479 551 32,000  Level FlightAware ADS-B
Sat 03:35:07 PM 64.1040 -55.1580 271° West 479 551 32,000  Level FlightAware ADS-B
Sat 03:35:57 PM 64.1050 -55.3740 271° West 479 551 32,000  Level FlightAware ADS-B
Sat 03:36:45 PM 64.1167 -55.9833 271° West 490 564 32,000  Level Gander Center
Sat 03:37:45 PM 64.1333 -56.2833 277° West 480 552 32,000  Level Gander Center
Sat 03:38:45 PM 64.1167 -56.5167 261° West 480 552 32,000  Level Gander Center
Sat 03:39:45 PM 64.1167 -56.8167 270° West 480 552 32,000  Level Gander Center
Sat 03:40:45 PM 64.1167 -57.1167 270° West 480 552 32,000  Level Gander Center
Sat 03:41:45 PM 64.1167 -57.4167 270° West 480 552 32,000  Level Gander Center
Sat 03:42:45 PM 64.1000 -57.7333 263° West 480 552 32,000  Level Gander Center
Sat 03:43:45 PM 64.1000 -58.0667 270° West 490 564 32,000  Level Gander Center
Sat 03:44:45 PM 64.0833 -58.3667 263° West 490 564 32,000  Level Gander Center
Sat 03:45:45 PM 64.0833 -58.6333 270° West 490 564 32,000  Level Gander Center
Sat 03:46:45 PM 64.0833 -58.9833 270° West 480 552 32,000  Level Gander Center
Sat 03:47:45 PM 64.0667 -59.2500 262° West 480 552 32,000  Level Gander Center
Sat 03:48:45 PM 64.0500 -59.5833 264° West 480 552 32,000  Level Gander Center
Sat 03:49:45 PM 64.0333 -59.8833 263° West 490 564 32,000  Level Gander Center
Sat 03:50:45 PM 64.0000 -60.1833 256° West 480 552 32,000  Level Gander Center
Sat 03:51:45 PM 63.9667 -60.4500 254° West 490 564 32,000  Level Gander Center
Sat 03:52:45 PM 63.9167 -60.7500 249° West 490 564 32,000  Level Gander Center
Sat 03:53:45 PM 63.8833 -61.0167 254° West 500 575 32,000  Level Gander Center
Sat 03:54:45 PM 63.8333 -61.3500 251° West 500 575 32,000  Level Gander Center
Sat 03:55:45 PM 63.7833 -61.6167 247° West 500 575 32,000  Level Gander Center
Sat 03:56:45 PM 63.7167 -61.9833 248° West 510 587 32,000  Level Gander Center
Sat 03:57:45 PM 63.6833 -62.2500 254° West 500 575 32,000  Level Gander Center
Sat 03:58:45 PM 63.6333 -62.5500 250° West 500 575 32,000  Level Gander Center
Sat 03:59:45 PM 63.5667 -62.8500 244° Southwest 500 575 32,000  Level Gander Center
Sat 04:00:45 PM 63.5167 -63.1000 246° West 500 575 32,000  Level Gander Center
Sat 04:01:45 PM 63.4833 -63.4000 256° West 490 564 32,000  Level Gander Center
Sat 04:02:45 PM 63.4333 -63.6833 249° West 490 564 32,000  Level Gander Center
Sat 04:03:45 PM 63.3833 -63.9833 250° West 500 575 32,000  Level Gander Center
Sat 04:04:45 PM 63.3333 -64.2667 249° West 500 575 32,000  Level Gander Center
Sat 04:05:45 PM 63.2833 -64.5667 250° West 490 564 32,000  Level Gander Center
Sat 04:06:10 PM 63.2667 -64.6667 250° West 490 564 32,000  Level Gander Center
Sat 04:06:45 PM 63.2500 -64.8167 256° West 490 564 32,000  Level Gander Center
Sat 04:07:45 PM 63.1833 -65.1000 243° Southwest 500 575 32,000  Level Gander Center
Sat 04:08:10 PM 63.1667 -65.2000 250° West 490 564 32,000  Level Gander Center
Sat 04:08:45 PM 63.1500 -65.3833 259° West 490 564 32,000  Level Gander Center
Sat 04:09:45 PM 63.0833 -65.6667 243° Southwest 490 564 32,000  Level Gander Center
Sat 04:10:45 PM 63.0500 -65.9167 254° West 490 564 32,000  Level Gander Center
Sat 04:11:45 PM 62.9833 -66.2500 246° West 490 564 32,000  Level Gander Center
Sat 04:12:10 PM 62.9667 -66.3500 250° West 490 564 32,000  Level Gander Center
Sat 04:12:45 PM 62.9500 -66.4833 255° West 490 564 32,000  Level Gander Center
Sat 04:13:45 PM 62.8833 -66.7667 243° Southwest 490 564 32,000  Level Gander Center
Sat 04:14:45 PM 62.8333 -67.0500 249° West 490 564 32,000  Level Gander Center
Sat 04:15:10 PM 62.8000 -67.1500 234° Southwest 490 564 32,000  Level Gander Center
Sat 04:15:45 PM 62.7667 -67.3000 244° Southwest 500 575 32,000  Level Gander Center
Sat 04:16:10 PM 62.7500 -67.4333 255° West 500 575 32,000  Level Gander Center
Sat 04:16:45 PM 62.7000 -67.5667 231° Southwest 500 575 32,000  Level Gander Center
Sat 04:17:45 PM 62.6500 -67.8167 247° West 500 575 32,000  Level Gander Center
Sat 04:18:45 PM 62.5667 -68.0833 236° Southwest 500 575 32,000  Level Gander Center
Sat 04:19:45 PM 62.5000 -68.3667 243° Southwest 500 575 32,000  Level Gander Center
Sat 04:20:45 PM 62.4167 -68.6333 236° Southwest 500 575 32,000  Level Gander Center
Sat 04:21:10 PM 62.4000 -68.7333 250° West 500 575 32,000  Level Gander Center
Sat 04:21:33 PM 62.3833 -68.7667 223° Southwest 500 575 32,000  Level Montreal Center
Sat 04:22:33 PM 62.3167 -69.0000 238° Southwest 500 575 32,000  Level Montreal Center
Sat 04:23:33 PM 62.2333 -69.2667 236° Southwest 500 575 32,000  Level Montreal Center
Sat 04:24:33 PM 62.1500 -69.5333 236° Southwest 500 575 32,000  Level Montreal Center
Sat 04:25:33 PM 62.0833 -69.8000 242° Southwest 500 575 32,000  Level Montreal Center
Sat 04:26:33 PM 62.0167 -70.0667 242° Southwest 510 587 32,000  Level Montreal Center
Sat 04:27:33 PM 61.9500 -70.3167 241° Southwest 510 587 32,000  Level Montreal Center
Sat 04:28:33 PM 61.8833 -70.5833 242° Southwest 510 587 32,000  Level Montreal Center
Sat 04:29:33 PM 61.8333 -70.8833 251° West 510 587 32,000  Level Montreal Center
Sat 04:30:33 PM 61.7667 -71.1667 244° Southwest 520 598 32,000  Level Montreal Center
Sat 04:31:45 PM 61.6833 -71.5167 243° Southwest 520 598 32,000  Level Gander Center
Sat 04:32:16 PM 61.6167 -71.4500 155° Southeast 500 575 32,000  Level Edmonton Center
Sat 04:32:33 PM 61.6500 -71.6833 287° West 520 598 32,000  Level Montreal Center
Sat 04:33:16 PM 61.5500 -71.7333 193° South 540 621 32,000  Level Edmonton Center
Sat 04:34:16 PM 61.4833 -72.0000 242° Southwest 520 598 32,000  Level Edmonton Center
Sat 04:35:16 PM 61.4167 -72.2500 241° Southwest 510 587 32,000  Level Edmonton Center
Sat 04:35:33 PM 61.4500 -72.4833 287° West 510 587 32,000  Level Montreal Center
Sat 04:36:16 PM 61.3500 -72.5167 189° South 520 598 32,000  Level Edmonton Center
Sat 04:37:16 PM 61.2833 -72.7833 243° Southwest 520 598 32,000  Level Edmonton Center
Sat 04:38:16 PM 61.2000 -73.0667 239° Southwest 520 598 32,000  Level Edmonton Center
Sat 04:38:33 PM 61.2333 -73.3167 286° West 520 598 32,000  Level Montreal Center
Sat 04:39:33 PM 61.1667 -73.5500 239° Southwest 520 598 32,000  Level Montreal Center
Sat 04:40:16 PM 61.0833 -73.6000 196° South 530 610 32,000  Level Edmonton Center
Sat 04:41:16 PM 61.0000 -73.8333 234° Southwest 520 598 32,000  Level Edmonton Center
Sat 04:42:16 PM 60.9333 -74.1000 243° Southwest 520 598 32,000  Level Edmonton Center
Sat 04:42:33 PM 60.9667 -74.3333 286° West 520 598 32,000  Level Montreal Center
Sat 04:43:16 PM 60.8667 -74.3667 189° South 520 598 32,000  Level Edmonton Center
Sat 04:43:33 PM 60.8833 -74.6167 278° West 510 587 32,000  Level Montreal Center
Sat 04:44:16 PM 60.8000 -74.6333 186° South 520 598 32,000  Level Edmonton Center
Sat 04:45:16 PM 60.7167 -74.8833 236° Southwest 520 598 32,000  Level Edmonton Center
Sat 04:45:33 PM 60.7333 -75.1000 279° West 510 587 32,000  Level Montreal Center
Sat 04:46:33 PM 60.6667 -75.3333 240° Southwest 510 587 32,000  Level Montreal Center
Sat 04:47:33 PM 60.6000 -75.6167 244° Southwest 510 587 32,000  Level Montreal Center
Sat 04:48:16 PM 60.5167 -75.6333 186° South 510 587 32,000  Level Edmonton Center
Sat 04:49:16 PM 60.4167 -75.8667 229° Southwest 510 587 32,000  Level Edmonton Center
Sat 04:49:33 PM 60.4500 -76.1000 286° West 510 587 32,000  Level Montreal Center
Sat 04:50:33 PM 60.3833 -76.3667 243° Southwest 500 575 32,000  Level Montreal Center
Sat 04:51:16 PM 60.2833 -76.3667 180° South 510 587 32,000  Level Edmonton Center
Sat 04:52:16 PM 60.2167 -76.5833 238° Southwest 500 575 32,000  Level Edmonton Center
Sat 04:53:16 PM 60.1500 -76.8333 242° Southwest 500 575 32,000  Level Edmonton Center
Sat 04:53:33 PM 60.1667 -77.0667 278° West 500 575 32,000  Level Montreal Center
Sat 04:54:33 PM 60.1000 -77.3000 240° Southwest 490 564 32,000  Level Montreal Center
Sat 04:55:16 PM 59.9833 -77.3500 192° South 510 587 32,000  Level Edmonton Center
Sat 04:56:16 PM 59.9000 -77.5667 233° Southwest 490 564 32,000  Level Edmonton Center
Sat 04:57:16 PM 59.8500 -77.8000 247° West 500 575 32,000  Level Edmonton Center
Sat 04:57:33 PM 59.8667 -78.0000 280° West 500 575 32,000  Level Montreal Center
Sat 04:58:33 PM 59.7833 -78.2333 235° Southwest 500 575 32,000  Level Montreal Center
Sat 04:59:33 PM 59.7000 -78.4500 233° Southwest 500 575 32,000  Level Montreal Center
Sat 05:00:16 PM 59.6167 -78.5000 197° South 500 575 32,000  Level Edmonton Center
Sat 05:00:33 PM 59.6333 -78.6833 280° West 500 575 32,000  Level Montreal Center
Sat 05:01:16 PM 59.5333 -78.7167 190° South 500 575 32,000  Level Edmonton Center
Sat 05:02:17 PM 59.4667 -78.9500 241° Southwest 500 575 32,000  Level Edmonton Center
Sat 05:02:33 PM 59.4833 -79.1667 279° West 500 575 32,000  Level Montreal Center
Sat 05:03:33 PM 59.4000 -79.3833 233° Southwest 500 575 32,000  Level Montreal Center
Sat 05:05:00 PM 59.2886 -79.6796 234° Southwest  Level FlightAware Approximate
Sat 05:05:33 PM 59.2333 -79.8333 234° Southwest 500 575 32,000  Level Montreal Center
Sat 05:06:33 PM 59.1667 -80.0500 239° Southwest 500 575 32,000  Level Montreal Center
Sat 05:07:16 PM 59.0833 -80.1000 197° South 500 575 32,000  Level Edmonton Center
Sat 05:08:16 PM 59.0333 -80.3500 249° West 500 575 32,000  Level Edmonton Center
Sat 05:08:33 PM 59.0500 -80.5667 279° West 500 575 32,000  Level Montreal Center
Sat 05:09:33 PM 58.9833 -80.7833 239° Southwest 500 575 32,000  Level Montreal Center
Sat 05:10:33 PM 58.9167 -81.0333 243° Southwest 500 575 32,000  Level Montreal Center
Sat 05:11:33 PM 58.8500 -81.2833 243° Southwest 500 575 32,000  Level Montreal Center
Sat 05:12:16 PM 58.7667 -81.3167 192° South 500 575 32,000  Level Edmonton Center
Sat 05:12:33 PM 58.8000 -81.5333 287° West 500 575 32,000 1,169 Level Montreal Center
Sat 05:13:33 PM 58.7333 -81.7667 241° Southwest 500 575 33,500 1,165 Climbing Montreal Center
Sat 05:14:16 PM 58.6500 -81.8167 197° South 500 575 34,000 500 Climbing Edmonton Center
Sat 05:14:33 PM 58.6500 -82.0000 270° West 500 575 34,000  Level Montreal Center
Sat 05:15:33 PM 58.6000 -82.2500 249° West 500 575 34,000  Level Montreal Center
Sat 05:16:16 PM 58.5167 -82.2667 186° South 500 575 34,000  Level Edmonton Center
Sat 05:17:16 PM 58.4500 -82.4833 240° Southwest 500 575 34,000  Level Edmonton Center
Sat 05:18:16 PM 58.3833 -82.7333 243° Southwest 500 575 34,000  Level Edmonton Center
Sat 05:19:16 PM 58.3167 -82.9833 243° Southwest 500 575 34,000  Level Edmonton Center
Sat 05:20:16 PM 58.2667 -83.2000 246° West 500 575 34,000  Level Edmonton Center
Sat 05:21:16 PM 58.1833 -83.4500 238° Southwest 500 575 34,000  Level Edmonton Center
Sat 05:22:16 PM 58.1167 -83.6500 238° Southwest 500 575 34,000  Level Edmonton Center
Sat 05:23:16 PM 58.0500 -83.9000 243° Southwest 500 575 34,000  Level Edmonton Center
Sat 05:24:16 PM 57.9833 -84.1000 238° Southwest 500 575 34,000  Level Edmonton Center
Sat 05:24:33 PM 57.9833 -84.3500 270° West 500 575 34,000  Level Montreal Center
Sat 05:25:33 PM 57.9167 -84.5833 242° Southwest 500 575 34,000  Level Montreal Center
Sat 05:26:16 PM 57.8500 -84.5833 180° South 500 575 34,000  Level Edmonton Center
Sat 05:27:16 PM 57.7833 -84.8000 240° Southwest 500 575 34,000  Level Edmonton Center
Sat 05:27:33 PM 57.7667 -85.0333 262° West 500 575 34,000  Level Montreal Center
Sat 05:28:33 PM 57.7000 -85.2667 242° Southwest 500 575 34,000  Level Montreal Center
Sat 05:29:33 PM 57.6333 -85.4667 238° Southwest 500 575 34,000  Level Montreal Center
Sat 05:30:16 PM 57.5500 -85.4833 186° South 500 575 34,000  Level Edmonton Center
Sat 05:31:16 PM 57.4833 -85.7167 242° Southwest 500 575 34,000  Level Edmonton Center
Sat 05:31:33 PM 57.4833 -85.9333 270° West 500 575 34,000  Level Montreal Center
Sat 05:32:33 PM 57.4167 -86.1333 238° Southwest 500 575 34,000  Level Montreal Center
Sat 05:33:16 PM 57.3500 -86.1500 188° South 500 575 34,000  Level Edmonton Center
Sat 05:34:16 PM 57.2667 -86.3833 237° Southwest 500 575 34,000  Level Edmonton Center
Sat 05:35:16 PM 57.2000 -86.5833 238° Southwest 500 575 34,000  Level Edmonton Center
Sat 05:36:16 PM 57.1333 -86.8167 242° Southwest 500 575 34,000  Level Edmonton Center
Sat 05:37:16 PM 57.0500 -87.0167 233° Southwest 500 575 34,000  Level Edmonton Center
Sat 05:38:16 PM 56.9833 -87.2333 241° Southwest 500 575 34,000  Level Edmonton Center
Sat 05:39:16 PM 56.9000 -87.4667 237° Southwest 490 564 34,000  Level Edmonton Center
Sat 05:40:16 PM 56.8167 -87.6667 233° Southwest 490 564 34,000  Level Edmonton Center
Sat 05:41:16 PM 56.7500 -87.9000 243° Southwest 490 564 34,000  Level Edmonton Center
Sat 05:42:16 PM 56.6667 -88.0833 230° Southwest 490 564 34,000  Level Edmonton Center
Sat 05:43:16 PM 56.6000 -88.3167 243° Southwest 490 564 34,000  Level Edmonton Center
Sat 05:44:16 PM 56.5333 -88.5333 241° Southwest 490 564 34,000  Level Edmonton Center
Sat 05:45:16 PM 56.4500 -88.7333 233° Southwest 490 564 34,000  Level Edmonton Center
Sat 05:46:16 PM 56.3667 -88.9500 235° Southwest 490 564 34,000  Level Edmonton Center
Sat 05:46:42 PM 56.3667 -89.0667 270° West 490 564 34,000  Level Winnipeg Center
Sat 05:47:42 PM 56.2833 -89.2667 233° Southwest 500 575 34,000  Level Winnipeg Center
Sat 05:48:42 PM 56.2167 -89.4833 241° Southwest 500 575 34,000  Level Winnipeg Center
Sat 05:49:42 PM 56.1333 -89.6833 233° Southwest 500 575 34,000  Level Winnipeg Center
Sat 05:50:16 PM 56.0667 -89.7667 215° Southwest 490 564 34,000  Level Edmonton Center
Sat 05:51:17 PM 55.9833 -89.9833 236° Southwest 490 564 34,000  Level Edmonton Center
Sat 05:52:17 PM 55.9167 -90.1667 237° Southwest 500 575 34,000  Level Edmonton Center
Sat 05:52:42 PM 55.8833 -90.3000 246° West 500 575 34,000  Level Winnipeg Center
Sat 05:53:17 PM 55.8167 -90.3667 209° Southwest 500 575 34,000  Level Edmonton Center
Sat 05:54:17 PM 55.7333 -90.5833 236° Southwest 500 575 34,000  Level Edmonton Center
Sat 05:55:17 PM 55.6500 -90.7667 231° Southwest 490 564 34,000  Level Edmonton Center
Sat 05:56:17 PM 55.5500 -90.9500 226° Southwest 490 564 34,000  Level Edmonton Center
Sat 05:57:17 PM 55.4667 -91.1333 231° Southwest 490 564 34,000  Level Edmonton Center
Sat 05:58:17 PM 55.4000 -91.3500 242° Southwest 490 564 34,000  Level Edmonton Center
Sat 05:59:17 PM 55.3167 -91.5167 229° Southwest 480 552 34,000  Level Edmonton Center
Sat 06:00:17 PM 55.2333 -91.7000 231° Southwest 490 564 34,000  Level Edmonton Center
Sat 06:01:17 PM 55.1333 -91.8833 226° Southwest 490 564 34,000  Level Edmonton Center
Sat 06:02:17 PM 55.0500 -92.1000 236° Southwest 480 552 34,000  Level Edmonton Center
Sat 06:03:17 PM 54.9667 -92.2667 229° Southwest 480 552 34,000  Level Edmonton Center
Sat 06:04:17 PM 54.8833 -92.4500 232° Southwest 480 552 34,000  Level Edmonton Center
Sat 06:05:17 PM 54.8000 -92.6333 232° Southwest 480 552 34,000  Level Edmonton Center
Sat 06:06:17 PM 54.7167 -92.8000 229° Southwest 480 552 34,000  Level Edmonton Center
Sat 06:06:42 PM 54.7000 -92.9000 254° West 480 552 34,000  Level Winnipeg Center
Sat 06:07:42 PM 54.6000 -93.0833 227° Southwest 480 552 34,000  Level Winnipeg Center
Sat 06:08:42 PM 54.5333 -93.2667 238° Southwest 480 552 34,000  Level Winnipeg Center
Sat 06:09:42 PM 54.4333 -93.4500 227° Southwest 480 552 34,000  Level Winnipeg Center
Sat 06:10:42 PM 54.3500 -93.6333 232° Southwest 480 552 34,000  Level Winnipeg Center
Sat 06:11:42 PM 54.2500 -93.7833 221° Southwest 470 541 34,000  Level Winnipeg Center
Sat 06:12:41 PM 54.1833 -93.9667 238° Southwest 480 552 34,000  Level Winnipeg Center
Sat 06:13:41 PM 54.1000 -94.1333 230° Southwest 470 541 34,000  Level Winnipeg Center
Sat 06:14:41 PM 54.0167 -94.3167 232° Southwest 470 541 34,000  Level Winnipeg Center
Sat 06:15:41 PM 53.9167 -94.4667 221° Southwest 470 541 34,000  Level Winnipeg Center
Sat 06:16:17 PM 53.8500 -94.5500 216° Southwest 450 518 34,000  Level Edmonton Center
Sat 06:17:17 PM 53.7667 -94.7167 230° Southwest 460 529 34,000  Level Edmonton Center
Sat 06:17:41 PM 53.7667 -94.8167 270° West 470 541 34,000  Level Winnipeg Center
Sat 06:18:41 PM 53.6833 -94.9833 230° Southwest 470 541 34,000  Level Winnipeg Center
Sat 06:19:41 PM 53.6000 -95.1500 230° Southwest 470 541 34,000  Level Winnipeg Center
Sat 06:20:41 PM 53.5167 -95.3333 233° Southwest 460 529 34,000  Level Winnipeg Center
Sat 06:21:41 PM 53.4333 -95.5000 230° Southwest 460 529 34,000  Level Winnipeg Center
Sat 06:22:17 PM 53.3833 -95.5500 211° Southwest 450 518 34,000  Level Edmonton Center
Sat 06:22:41 PM 53.3667 -95.6667 257° West 460 529 34,000  Level Winnipeg Center
Sat 06:23:41 PM 53.2833 -95.8500 233° Southwest 460 529 34,000  Level Winnipeg Center
Sat 06:24:41 PM 53.2000 -96.0167 230° Southwest 460 529 34,000  Level Winnipeg Center
Sat 06:25:41 PM 53.1167 -96.1833 230° Southwest 450 518 34,000  Level Winnipeg Center
Sat 06:26:41 PM 53.0333 -96.3167 224° Southwest 450 518 34,000  Level Winnipeg Center
Sat 06:27:41 PM 52.9667 -96.4833 236° Southwest 450 518 34,000  Level Winnipeg Center
Sat 06:28:41 PM 52.8833 -96.6667 233° Southwest 450 518 34,000 50 Level Winnipeg Center
Sat 06:29:41 PM 52.8000 -96.8333 230° Southwest 460 529 34,100 950 Climbing Winnipeg Center
Sat 06:30:41 PM 52.7167 -97.0000 231° Southwest 450 518 35,900 731 Climbing Winnipeg Center
Sat 06:32:17 PM 52.5833 -97.2167 225° Southwest 450 518 36,000 50 Climbing Edmonton Center
Sat 06:32:41 PM 52.5500 -97.3167 241° Southwest 460 529 36,000  Level Winnipeg Center
Sat 06:33:41 PM 52.4833 -97.4667 234° Southwest 460 529 36,000  Level Winnipeg Center
Sat 06:34:41 PM 52.4000 -97.6167 228° Southwest 450 518 36,000  Level Winnipeg Center
Sat 06:35:41 PM 52.3167 -97.7833 231° Southwest 450 518 36,000  Level Winnipeg Center
Sat 06:36:41 PM 52.2333 -97.9167 224° Southwest 450 518 36,000  Level Winnipeg Center
Sat 06:37:17 PM 52.1667 -97.9833 212° Southwest 440 506 36,000  Level Edmonton Center
Sat 06:38:17 PM 52.0833 -98.1333 228° Southwest 440 506 36,000  Level Edmonton Center
Sat 06:38:41 PM 52.0833 -98.2500 270° West 450 518 36,000  Level Winnipeg Center
Sat 06:39:41 PM 52.0000 -98.4000 228° Southwest 450 518 36,000  Level Winnipeg Center
Sat 06:40:41 PM 51.9167 -98.5333 225° Southwest 450 518 36,000  Level Winnipeg Center
Sat 06:41:41 PM 51.8167 -98.7333 231° Southwest 450 518 36,000  Level Winnipeg Center
Sat 06:42:41 PM 51.7500 -98.8500 227° Southwest 460 529 36,000  Level Winnipeg Center
Sat 06:43:41 PM 51.6500 -99.0167 226° Southwest 460 529 36,000  Level Winnipeg Center
Sat 06:44:41 PM 51.5833 -99.1667 234° Southwest 460 529 36,000  Level Winnipeg Center
Sat 06:45:41 PM 51.5000 -99.3333 231° Southwest 460 529 36,000  Level Winnipeg Center
Sat 06:46:41 PM 51.4167 -99.4833 228° Southwest 450 518 36,000  Level Winnipeg Center
Sat 06:47:41 PM 51.3167 -99.6167 220° Southwest 450 518 36,000  Level Winnipeg Center
Sat 06:48:41 PM 51.2333 -99.7667 228° Southwest 450 518 36,000  Level Winnipeg Center
Sat 06:49:41 PM 51.1667 -99.9333 238° Southwest 450 518 36,000  Level Winnipeg Center
Sat 06:50:41 PM 51.0833 -100.0833 229° Southwest 450 518 36,000  Level Winnipeg Center
Sat 06:51:41 PM 50.9833 -100.2167 220° Southwest 450 518 36,000  Level Winnipeg Center
Sat 06:52:41 PM 50.9000 -100.3667 229° Southwest 450 518 36,000  Level Winnipeg Center
Sat 06:53:41 PM 50.8167 -100.4833 222° Southwest 440 506 36,000  Level Winnipeg Center
Sat 06:54:41 PM 50.7167 -100.6333 224° Southwest 440 506 36,000  Level Winnipeg Center
Sat 06:55:41 PM 50.6333 -100.8000 232° Southwest 450 518 36,000  Level Winnipeg Center
Sat 06:56:41 PM 50.5500 -100.9167 222° Southwest 440 506 36,000  Level Winnipeg Center
Sat 06:57:41 PM 50.4667 -101.0667 229° Southwest 440 506 36,000  Level Winnipeg Center
Sat 06:58:41 PM 50.3667 -101.1833 217° Southwest 440 506 36,000  Level Winnipeg Center
Sat 06:59:41 PM 50.2833 -101.3333 229° Southwest 440 506 36,000  Level Winnipeg Center
Sat 07:00:41 PM 50.2167 -101.4667 232° Southwest 440 506 36,000  Level Winnipeg Center
Sat 07:01:41 PM 50.1167 -101.6167 224° Southwest 440 506 36,000  Level Winnipeg Center
Sat 07:02:41 PM 50.0333 -101.7333 222° Southwest 440 506 36,000  Level Winnipeg Center
Sat 07:03:41 PM 49.9333 -101.8833 224° Southwest 440 506 36,000  Level Winnipeg Center
Sat 07:04:41 PM 49.8500 -102.0000 222° Southwest 440 506 36,000  Level Winnipeg Center
Sat 07:05:41 PM 49.7667 -102.1167 222° Southwest 450 518 36,000  Level Winnipeg Center
Sat 07:06:41 PM 49.6667 -102.2667 224° Southwest 440 506 36,000  Level Winnipeg Center
Sat 07:07:41 PM 49.5833 -102.3833 222° Southwest 440 506 36,000  Level Winnipeg Center
Sat 07:08:41 PM 49.5000 -102.5333 229° Southwest 440 506 36,000  Level Winnipeg Center
Sat 07:09:41 PM 49.4167 -102.6500 222° Southwest 430 495 36,000  Level Winnipeg Center
Sat 07:10:41 PM 49.3333 -102.8000 230° Southwest 440 506 36,000  Level Winnipeg Center
Sat 07:11:41 PM 49.2333 -102.9167 217° Southwest 440 506 36,000  Level Winnipeg Center
Sat 07:12:41 PM 49.1500 -103.0333 223° Southwest 430 495 36,000  Level Winnipeg Center
Sat 07:13:41 PM 49.0500 -103.1667 221° Southwest 430 495 36,000  Level Winnipeg Center
Sat 07:14:41 PM 48.9833 -103.2833 229° Southwest 430 495 36,000  Level Winnipeg Center
Sat 07:15:41 PM 48.8833 -103.4333 225° Southwest 430 495 36,000  Level Winnipeg Center
Sat 07:16:41 PM 48.8000 -103.5500 223° Southwest 430 495 36,000  Level Winnipeg Center
Sat 07:17:41 PM 48.7333 -103.6667 229° Southwest 430 495 36,000  Level Winnipeg Center
Sat 07:18:41 PM 48.6167 -103.8000 217° Southwest 430 495 36,000  Level Winnipeg Center
Sat 07:19:41 PM 48.5500 -103.9167 229° Southwest 440 506 36,000  Level Winnipeg Center
Sat 07:20:41 PM 48.4500 -104.0500 222° Southwest 440 506 36,000  Level Winnipeg Center
Sat 07:21:41 PM 48.3667 -104.1667 223° Southwest 430 495 36,000  Level Winnipeg Center
Sat 07:22:41 PM 48.2667 -104.3000 222° Southwest 440 506 36,000  Level Winnipeg Center
Sat 07:23:41 PM 48.1833 -104.4167 223° Southwest 440 506 36,000  Level Winnipeg Center
Sat 07:24:41 PM 48.1000 -104.5333 223° Southwest 440 506 36,000  Level Winnipeg Center
Sat 07:25:41 PM 48.0000 -104.6667 222° Southwest 440 506 36,000  Level Winnipeg Center
Sat 07:26:41 PM 47.9167 -104.7833 223° Southwest 440 506 36,000  Level Winnipeg Center
Sat 07:27:41 PM 47.8167 -104.9167 222° Southwest 440 506 36,000  Level Winnipeg Center
Sat 07:28:41 PM 47.7333 -105.0167 219° Southwest 440 506 36,000  Level Winnipeg Center
Sat 07:29:41 PM 47.6333 -105.1667 225° Southwest 430 495 36,000  Level Winnipeg Center
Sat 07:30:41 PM 47.5500 -105.2667 219° Southwest 440 506 36,000  Level Winnipeg Center
Sat 07:30:56 PM 47.5608 -105.2667 360° North 436 502 36,000  Level Salt Lake Center
Sat 07:31:57 PM 47.4719 -105.3875 223° Southwest 437 503 36,000  Level Salt Lake Center
Sat 07:32:58 PM 47.3803 -105.5075 222° Southwest 441 507 36,000  Level Salt Lake Center
Sat 07:33:59 PM 47.2700 -105.6528 222° Southwest 443 510 36,000  Level Salt Lake Center
Sat 07:35:00 PM 47.1758 -105.7750 221° Southwest 443 510 36,000  Level Salt Lake Center
Sat 07:36:02 PM 47.0861 -105.8906 221° Southwest 441 507 36,000  Level Salt Lake Center
Sat 07:37:03 PM 46.9950 -106.0103 222° Southwest 442 509 36,000  Level Salt Lake Center
Sat 07:38:04 PM 46.9022 -106.1278 221° Southwest 442 509 36,000  Level Salt Lake Center
Sat 07:39:05 PM 46.8044 -106.2439 219° Southwest 443 510 36,000  Level Salt Lake Center
Sat 07:40:06 PM 46.6992 -106.3717 220° Southwest 440 506 36,000  Level Salt Lake Center
Sat 07:41:07 PM 46.6092 -106.4811 220° Southwest 439 505 36,000  Level Salt Lake Center
Sat 07:42:09 PM 46.5206 -106.5881 220° Southwest 435 501 36,000  Level Salt Lake Center
Sat 07:43:10 PM 46.4178 -106.7133 220° Southwest 433 498 36,000  Level Salt Lake Center
Sat 07:44:11 PM 46.3269 -106.8211 219° Southwest 438 504 36,000  Level Salt Lake Center
Sat 07:45:12 PM 46.2364 -106.9314 220° Southwest 442 509 36,000  Level Salt Lake Center
Sat 07:46:13 PM 46.1300 -107.0572 219° Southwest 443 510 36,000  Level Salt Lake Center
Sat 07:47:14 PM 46.0394 -107.1653 220° Southwest 442 509 36,000  Level Salt Lake Center
Sat 07:48:16 PM 45.9336 -107.2897 219° Southwest 440 506 36,000  Level Salt Lake Center
Sat 07:49:17 PM 45.8425 -107.3967 219° Southwest 443 510 36,000  Level Salt Lake Center
Sat 07:50:18 PM 45.7508 -107.5036 219° Southwest 444 511 36,000  Level Salt Lake Center
Sat 07:51:19 PM 45.6450 -107.6275 219° Southwest 441 507 36,000  Level Salt Lake Center
Sat 07:52:20 PM 45.5544 -107.7331 219° Southwest 440 506 36,000  Level Salt Lake Center
Sat 07:53:21 PM 45.4639 -107.8369 219° Southwest 439 505 36,000  Level Salt Lake Center
Sat 07:54:22 PM 45.3589 -107.9586 219° Southwest 439 505 36,000  Level Salt Lake Center
Sat 07:55:24 PM 45.2664 -108.0639 219° Southwest 445 512 36,000  Level Salt Lake Center
Sat 07:56:25 PM 45.1589 -108.1853 219° Southwest 445 512 36,000  Level Salt Lake Center
Sat 07:57:26 PM 45.0686 -108.2900 219° Southwest 443 510 36,000  Level Salt Lake Center
Sat 07:58:27 PM 44.9775 -108.3947 219° Southwest 443 510 36,000  Level Salt Lake Center
Sat 07:59:28 PM 44.8686 -108.5158 218° Southwest 448 516 36,000  Level Salt Lake Center
Sat 08:00:29 PM 44.7756 -108.6194 218° Southwest 447 514 36,000  Level Salt Lake Center
Sat 08:01:31 PM 44.6658 -108.7403 218° Southwest 450 518 36,000  Level Salt Lake Center
Sat 08:02:32 PM 44.5733 -108.8431 218° Southwest 445 512 36,000  Level Salt Lake Center
Sat 08:03:33 PM 44.4808 -108.9456 218° Southwest 443 510 36,000  Level Salt Lake Center
Sat 08:04:34 PM 44.3728 -109.0644 218° Southwest 444 511 36,000  Level Salt Lake Center
Sat 08:05:35 PM 44.2792 -109.1661 218° Southwest 446 513 36,000  Level Salt Lake Center
Sat 08:06:36 PM 44.1700 -109.2844 218° Southwest 447 514 36,000  Level Salt Lake Center
Sat 08:07:37 PM 44.0753 -109.3875 218° Southwest 451 519 36,000  Level Salt Lake Center
Sat 08:08:38 PM 43.9814 -109.4883 218° Southwest 457 526 36,000  Level Salt Lake Center
Sat 08:09:40 PM 43.8689 -109.6094 218° Southwest 458 527 36,000  Level Salt Lake Center
Sat 08:10:41 PM 43.7722 -109.7131 218° Southwest 458 527 36,000  Level Salt Lake Center
Sat 08:11:42 PM 43.6583 -109.8331 217° Southwest 459 528 36,000  Level Salt Lake Center
Sat 08:12:43 PM 43.5633 -109.9333 217° Southwest 452 520 36,000  Level Salt Lake Center
Sat 08:13:44 PM 43.4550 -110.0417 216° Southwest 455 524 36,000  Level Salt Lake Center
Sat 08:14:45 PM 43.3489 -110.1281 211° Southwest 462 532 36,000  Level Salt Lake Center
Sat 08:15:46 PM 43.2339 -110.2236 211° Southwest 466 536 36,000  Level Salt Lake Center
Sat 08:16:47 PM 43.1289 -110.3119 212° Southwest 463 533 36,000  Level Salt Lake Center
Sat 08:17:48 PM 43.0069 -110.4122 211° Southwest 458 527 36,000  Level Salt Lake Center
Sat 08:18:49 PM 42.8906 -110.5056 210° Southwest 467 537 36,000  Level Salt Lake Center
Sat 08:24:37 PM 42.2490 -111.0240 210° Southwest 466 536 36,000  Level FlightAware ADS-B
Sat 08:25:22 PM 42.1680 -111.0890 211° Southwest 451 519 36,000  Level FlightAware ADS-B
Sat 08:26:02 PM 42.1020 -111.1420 211° Southwest 451 519 36,000  Level FlightAware ADS-B
Sat 08:26:47 PM 42.0120 -111.2120 210° Southwest 449 517 36,000  Level FlightAware ADS-B
Sat 08:27:27 PM 41.9380 -111.2720 211° Southwest 449 517 36,000  Level FlightAware ADS-B
Sat 08:28:02 PM 41.8770 -111.3200 210° Southwest 468 539 36,000  Level FlightAware ADS-B
Sat 08:28:52 PM 41.7790 -111.3970 210° Southwest 464 534 36,000  Level FlightAware ADS-B
Sat 08:29:32 PM 41.7070 -111.4530 210° Southwest 450 518 36,000  Level FlightAware ADS-B
Sat 08:30:17 PM 41.6270 -111.5160 210° Southwest 448 516 36,000  Level FlightAware ADS-B
Sat 08:30:57 PM 41.5510 -111.5750 210° Southwest 449 517 36,000  Level FlightAware ADS-B
Sat 08:31:37 PM 41.4790 -111.6310 210° Southwest 452 520 36,000  Level FlightAware ADS-B
Sat 08:32:22 PM 41.3970 -111.6940 210° Southwest 448 516 36,000  Level FlightAware ADS-B
Sat 08:33:02 PM 41.3240 -111.7510 210° Southwest 447 514 36,000  Level FlightAware ADS-B
Sat 08:33:42 PM 41.2520 -111.8070 210° Southwest 450 518 36,000  Level FlightAware ADS-B
Sat 08:34:27 PM 41.1680 -111.8710 210° Southwest 450 518 36,000  Level FlightAware ADS-B
Sat 08:35:07 PM 41.0950 -111.9280 210° Southwest 448 516 36,000  Level FlightAware ADS-B
Sat 08:35:52 PM 41.0130 -111.9890 209° Southwest 455 524 36,000  Level FlightAware ADS-B
Sat 08:36:32 PM 40.9350 -112.0400 206° Southwest 459 528 36,000  Level FlightAware ADS-B
Sat 08:37:12 PM 40.8560 -112.0870 204° Southwest 461 531 36,000  Level FlightAware ADS-B
Sat 08:37:57 PM 40.7670 -112.1400 204° Southwest 459 528 36,000  Level FlightAware ADS-B
Sat 08:38:37 PM 40.6890 -112.1870 205° Southwest 461 531 36,000  Level FlightAware ADS-B
Sat 08:39:22 PM 40.6000 -112.2400 204° Southwest 460 529 36,000  Level FlightAware ADS-B
Sat 08:40:02 PM 40.5210 -112.2870 204° Southwest 447 514 36,000  Level FlightAware ADS-B
Sat 08:40:42 PM 40.4470 -112.3310 204° Southwest 442 509 36,000  Level FlightAware ADS-B
Sat 08:41:27 PM 40.3600 -112.3820 204° Southwest 441 507 36,000  Level FlightAware ADS-B
Sat 08:42:07 PM 40.2850 -112.4270 205° Southwest 442 509 36,000  Level FlightAware ADS-B
Sat 08:42:47 PM 40.2090 -112.4720 204° Southwest 449 517 36,000  Level FlightAware ADS-B
Sat 08:43:32 PM 40.1230 -112.5220 204° Southwest 443 510 36,000  Level FlightAware ADS-B
Sat 08:44:12 PM 40.0470 -112.5670 204° Southwest 445 512 36,000  Level FlightAware ADS-B
Sat 08:44:57 PM 39.9610 -112.6170 204° Southwest 444 511 36,000  Level FlightAware ADS-B
Sat 08:45:37 PM 39.8910 -112.6580 204° Southwest 445 512 36,000  Level FlightAware ADS-B
Sat 08:46:17 PM 39.8070 -112.7060 204° Southwest 443 510 36,000  Level FlightAware ADS-B
Sat 08:46:57 PM 39.7300 -112.7510 204° Southwest 443 510 36,000  Level FlightAware ADS-B
Sat 08:47:42 PM 39.6490 -112.7980 204° Southwest 443 510 36,000  Level FlightAware ADS-B
Sat 08:48:22 PM 39.5690 -112.8440 204° Southwest 443 510 36,000  Level FlightAware ADS-B
Sat 08:49:12 PM 39.4750 -112.8990 204° Southwest 441 507 36,000  Level FlightAware ADS-B
Sat 08:49:52 PM 39.3990 -112.9420 204° Southwest 441 507 36,000  Level FlightAware ADS-B
Sat 08:50:27 PM 39.3330 -112.9800 204° Southwest 441 507 36,000  Level FlightAware ADS-B
Sat 08:51:12 PM 39.2600 -113.0220 204° Southwest 441 507 36,000  Level FlightAware ADS-B
Sat 08:51:52 PM 39.1970 -113.0580 204° Southwest 441 507 36,000  Level FlightAware ADS-B
Sat 08:52:42 PM 39.1170 -113.1040 204° Southwest 441 507 36,000  Level FlightAware ADS-B
Sat 08:53:22 PM 39.0540 -113.1400 204° Southwest 441 507 36,000  Level FlightAware ADS-B
Sat 08:54:12 PM 38.9050 -113.2240 204° Southwest 457 526 36,000  Level FlightAware ADS-B
Sat 08:54:52 PM 38.8390 -113.2610 204° Southwest 457 526 36,000  Level FlightAware ADS-B
Sat 08:55:42 PM 38.7570 -113.3080 204° Southwest 457 526 36,000  Level FlightAware ADS-B
Sat 08:56:22 PM 38.6910 -113.3460 204° Southwest 457 526 36,000  Level FlightAware ADS-B
Sat 08:57:02 PM 38.6260 -113.3830 204° Southwest 457 526 36,000  Level FlightAware ADS-B
Sat 08:57:42 PM 38.5600 -113.4210 204° Southwest 457 526 36,000  Level FlightAware ADS-B
Sat 08:58:22 PM 38.4940 -113.4580 204° Southwest 457 526 36,000  Level FlightAware ADS-B
Sat 08:59:12 PM 38.4120 -113.5050 204° Southwest 457 526 36,000  Level FlightAware ADS-B
Sat 08:59:52 PM 38.3460 -113.5420 204° Southwest 457 526 36,000  Level FlightAware ADS-B
Sat 09:00:32 PM 38.2810 -113.5790 204° Southwest 457 526 36,000  Level FlightAware ADS-B
Sat 09:01:12 PM 38.2150 -113.6160 204° Southwest 457 526 36,000  Level FlightAware ADS-B
Sat 09:01:52 PM 38.1490 -113.6540 204° Southwest 457 526 36,000  Level FlightAware ADS-B
Sat 09:02:42 PM 38.0670 -113.7000 204° Southwest 457 526 36,000  Level FlightAware ADS-B
Sat 09:03:22 PM 38.0020 -113.7370 204° Southwest 457 526 36,000  Level FlightAware ADS-B
Sat 09:06:42 PM 37.3730 -114.0630 202° Southwest 478 550 36,000  Level FlightAware ADS-B
Sat 09:07:22 PM 37.2910 -114.1030 201° Southwest 473 544 36,000  Level FlightAware ADS-B
Sat 09:08:02 PM 37.2090 -114.1430 201° Southwest 470 541 36,000  Level FlightAware ADS-B
Sat 09:08:47 PM 37.1210 -114.1870 202° Southwest 476 548 36,000  Level FlightAware ADS-B
Sat 09:09:27 PM 37.0380 -114.2270 201° Southwest 478 550 36,000  Level FlightAware ADS-B
Sat 09:10:07 PM 36.9550 -114.2680 202° Southwest 480 552 36,000  Level FlightAware ADS-B
Sat 09:10:47 PM 36.8730 -114.3110 203° Southwest 475 547 36,000  Level FlightAware ADS-B
Sat 09:11:32 PM 36.7850 -114.3740 210° Southwest 462 532 36,000  Level FlightAware ADS-B
Sat 09:12:17 PM 36.7100 -114.4440 217° Southwest 460 529 36,000  Level FlightAware ADS-B
Sat 09:12:57 PM 36.6420 -114.5070 217° Southwest 463 533 36,000  Level FlightAware ADS-B
Sat 09:13:42 PM 36.5630 -114.5790 216° Southwest 466 536 36,000  Level FlightAware ADS-B
Sat 09:14:22 PM 36.4920 -114.6440 216° Southwest 466 536 36,000  Level FlightAware ADS-B
Sat 09:15:02 PM 36.4230 -114.7060 216° Southwest 468 539 36,000  Level FlightAware ADS-B
Sat 09:15:47 PM 36.3450 -114.7770 216° Southwest 470 541 36,000  Level FlightAware ADS-B
Sat 09:16:27 PM 36.2740 -114.8410 216° Southwest 473 544 36,000  Level FlightAware ADS-B
Sat 09:17:12 PM 36.1950 -114.9120 216° Southwest 466 536 36,000  Level FlightAware ADS-B
Sat 09:17:52 PM 36.1260 -114.9740 216° Southwest 467 537 36,000  Level FlightAware ADS-B
Sat 09:18:32 PM 36.0550 -115.0370 216° Southwest 469 540 36,000  Level FlightAware ADS-B
Sat 09:19:17 PM 35.9760 -115.1080 216° Southwest 469 540 36,000  Level FlightAware ADS-B
Sat 09:19:57 PM 35.9050 -115.1710 216° Southwest 469 540 36,000  Level FlightAware ADS-B
Sat 09:20:42 PM 35.8280 -115.2410 216° Southwest 468 539 36,000  Level FlightAware ADS-B
Sat 09:21:22 PM 35.7560 -115.3040 215° Southwest 471 542 36,000  Level FlightAware ADS-B
Sat 09:22:02 PM 35.6860 -115.3660 216° Southwest 466 536 36,000  Level FlightAware ADS-B
Sat 09:22:47 PM 35.6090 -115.4350 216° Southwest 470 541 36,000  Level FlightAware ADS-B
Sat 09:23:27 PM 35.5370 -115.4990 216° Southwest 470 541 36,000  Level FlightAware ADS-B
Sat 09:24:07 PM 35.4720 -115.5710 222° Southwest 461 531 36,000  Level FlightAware ADS-B
Sat 09:24:52 PM 35.4070 -115.6590 228° Southwest 460 529 36,000  Level FlightAware ADS-B
Sat 09:25:32 PM 35.3530 -115.7310 227° Southwest 460 529 36,000  Level FlightAware ADS-B
Sat 09:26:17 PM 35.2870 -115.8180 227° Southwest 458 527 36,000  Level FlightAware ADS-B
Sat 09:26:47 PM 35.2860 -115.8200 239° Southwest 460 529 36,000  Level FlightAware ADS-B
Sat 09:27:37 PM 35.2240 -115.9020 227° Southwest 460 529 36,000 -457 Level FlightAware ADS-B
Sat 09:28:32 PM 35.0910 -116.0780 227° Southwest 452 520 35,200 -720 Descending FlightAware ADS-B
Sat 09:29:17 PM 35.0290 -116.1590 227° Southwest 455 524 34,800 -494 Descending FlightAware ADS-B
Sat 09:29:57 PM 34.9690 -116.2380 227° Southwest 460 529 34,500 -300 Descending FlightAware ADS-B
Sat 09:30:37 PM 34.9140 -116.3100 227° Southwest 457 526 34,400 -918 Descending FlightAware ADS-B
Sat 09:31:22 PM 34.8450 -116.4010 227° Southwest 462 532 33,200 -1,867 Descending FlightAware ADS-B
Sat 09:32:07 PM 34.7770 -116.4810 224° Southwest 458 527 31,600 -2,118 Descending FlightAware ADS-B
Sat 09:32:47 PM 34.7110 -116.5450 219° Southwest 453 521 30,200 -2,080 Descending FlightAware ADS-B
Sat 09:33:22 PM 34.6570 -116.5960 218° Southwest 444 511 29,000 -2,000 Descending FlightAware ADS-B
Sat 09:34:02 PM 34.5910 -116.6570 217° Southwest 439 505 27,700 -1,533 Descending FlightAware ADS-B
Sat 09:34:52 PM 34.5110 -116.7320 218° Southwest 426 490 26,700 -1,133 Descending FlightAware ADS-B
Sat 09:35:32 PM 34.4490 -116.7900 218° Southwest 414 476 26,000 -1,482 Descending FlightAware ADS-B
Sat 09:36:17 PM 34.3800 -116.8550 218° Southwest 408 470 24,600 -1,835 Descending FlightAware ADS-B
Sat 09:36:57 PM 34.3200 -116.9110 218° Southwest 399 459 23,400 -1,906 Descending FlightAware ADS-B
Sat 09:37:42 PM 34.2560 -116.9710 218° Southwest 397 457 21,900 -1,835 Descending FlightAware ADS-B
Sat 09:38:22 PM 34.1980 -117.0240 217° Southwest 391 450 20,800 -1,725 Descending FlightAware ADS-B
Sat 09:39:02 PM 34.1390 -117.0790 218° Southwest 385 443 19,600 -1,906 Descending FlightAware ADS-B
Sat 09:39:47 PM 34.0890 -117.1520 230° Southwest 375 432 18,100 -2,118 Descending FlightAware ADS-B
Sat 09:40:27 PM 34.0560 -117.2280 242° Southwest 376 433 16,600 -2,250 Descending FlightAware ADS-B
Sat 09:41:07 PM 34.0420 -117.3050 258° West 351 404 15,100 -2,118 Descending FlightAware ADS-B
Sat 09:41:52 PM 34.0350 -117.3890 264° West 328 377 13,600 -1,835 Descending FlightAware ADS-B
Sat 09:42:32 PM 34.0300 -117.4610 265° West 324 373 12,500 -1,624 Descending FlightAware ADS-B
Sat 09:43:17 PM 34.0330 -117.5410 273° West 318 366 11,300 -1,412 Descending FlightAware ADS-B
Sat 09:43:57 PM 34.0300 -117.6120 267° West 307 353 10,500 -776 Descending FlightAware ADS-B
Sat 09:44:42 PM 34.0240 -117.6830 264° West 277 319 10,200 -640 Descending FlightAware ADS-B
Sat 09:45:12 PM 34.0190 -117.7290 263° West 268 308 9,700 -1,080 Descending FlightAware ADS-B
Sat 09:45:32 PM 34.0160 -117.7590 263° West 267 307 9,300 -1,200 Descending FlightAware ADS-B
Sat 09:45:52 PM 34.0130 -117.7870 263° West 267 307 8,900 -1,333 Descending FlightAware ADS-B
Sat 09:46:17 PM 34.0100 -117.8260 265° West 266 306 8,300 -1,350 Descending FlightAware ADS-B
Sat 09:46:32 PM 34.0080 -117.8470 263° West 262 302 8,000 -1,200 Descending FlightAware ADS-B
Sat 09:47:02 PM 34.0030 -117.8890 262° West 240 276 7,400 -1,100 Descending FlightAware ADS-B
Sat 09:47:32 PM 34.0000 -117.9270 265° West 232 267 6,900 -900 Descending FlightAware ADS-B
Sat 09:47:42 PM 33.9980 -117.9400 259° West 232 267 6,800 -750 Descending FlightAware ADS-B
Sat 09:48:12 PM 33.9950 -117.9770 264° West 205 236 6,400 -873 Descending FlightAware ADS-B
Sat 09:48:37 PM 33.9920 -118.0050 263° West 189 217 6,000 -764 Descending FlightAware ADS-B
Sat 09:49:07 PM 33.9890 -118.0350 263° West 186 214 5,700 -533 Descending FlightAware ADS-B
Sat 09:49:22 PM 33.9870 -118.0500 261° West 188 216 5,600 -667 Descending FlightAware ADS-B
Sat 09:49:52 PM 33.9840 -118.0810 263° West 190 219 5,200 -764 Descending FlightAware ADS-B
Sat 09:50:17 PM 33.9820 -118.1090 265° West 173 199 4,900 -655 Descending FlightAware ADS-B
Sat 09:50:47 PM 33.9790 -118.1350 262° West 172 198 4,600 -764 Descending FlightAware ADS-B
Sat 09:51:12 PM 33.9770 -118.1600 264° West 173 199 4,200 -982 Descending FlightAware ADS-B
Sat 09:51:42 PM 33.9740 -118.1880 263° West 173 199 3,700 -982 Descending FlightAware ADS-B
Sat 09:52:07 PM 33.9710 -118.2120 261° West 177 204 3,300 -982 Descending FlightAware ADS-B
Sat 09:52:37 PM 33.9680 -118.2430 263° West 180 207 2,800 -1,000 Descending FlightAware ADS-B
Sat 09:53:07 PM 33.9650 -118.2730 263° West 173 199 2,300 -800 Descending FlightAware ADS-B
Sat 09:53:22 PM 33.9640 -118.2830 263° West 172 198 2,200 -840 Descending FlightAware ADS-B
Sat 09:53:57 PM 33.9610 -118.3180 264° West 163 188 1,600 -640 Descending FlightAware ADS-B
Sat 09:54:37 PM 33.9590 -118.3300 259° West 155 178 1,400 -185 Descending FlightAware ADS-B
Sat 09:55:02 PM 33.9570 -118.3490 263° West 155 178 1,400 -923 Level FlightAware ADS-B
Sat 09:55:42 PM 33.9530 -118.3910 263° West 142 163 400 -1,200 Descending FlightAware ADS-B
Sat 09:56:02 PM 33.9520 -118.4020 264° West 144 166 200 -267 Descending FlightAware ADS-B
Sat 09:56:27 PM 33.9500 -118.4200 262° West 144 166 200  Level FlightAware ADS-B

Login

Don't have an account? Register now (free) for customized features, flight alerts, and more!